Time;durP1;ratioP1;P1;durP2;ratioP2;P2;SDS_P1;SDS_P2;PMS_P1;PMS_P2;Temp;Humidity;BMP_temperature;BMP_pressure;BME280_temperature;BME280_humidity;BME280_pressure;Samples;Min_cycle;Max_cycle;Signal;HPM_P1;HPM_P2
2021/10/04 00:00:05;;;;;;;2.72;2.08;;;;;;;;;;5031396;28;20048;-50
2021/10/04 00:02:40;;;;;;;4.03;2.03;;;;;;;;;;5031631;28;20410;-48
2021/10/04 00:05:07;;;;;;;3.22;2.00;;;;;;;;;;5030852;28;20041;-48
2021/10/04 00:07:35;;;;;;;3.53;1.90;;;;;;;;;;5031795;28;20072;-45
2021/10/04 00:10:04;;;;;;;3.83;2.38;;;;;;;;;;5030675;28;20132;-51
2021/10/04 00:12:31;;;;;;;3.15;1.80;;;;;;;;;;5031581;28;20469;-44
2021/10/04 00:14:58;;;;;;;3.72;2.20;;;;;;;;;;5031171;28;20056;-43
2021/10/04 00:17:25;;;;;;;2.97;2.00;;;;;;;;;;5031389;28;20567;-45
2021/10/04 00:19:51;;;;;;;4.22;2.03;;;;;;;;;;5031597;28;20056;-46
2021/10/04 00:22:18;;;;;;;3.22;2.20;;;;;;;;;;5031423;28;20494;-47
2021/10/04 00:24:45;;;;;;;4.07;2.10;;;;;;;;;;5031185;28;20133;-46
2021/10/04 00:27:12;;;;;;;3.35;2.30;;;;;;;;;;5031513;28;20128;-49
2021/10/04 00:29:38;;;;;;;3.22;2.22;;;;;;;;;;5031262;28;20046;-47
2021/10/04 00:32:05;;;;;;;3.67;2.15;;;;;;;;;;5030246;28;20046;-47
2021/10/04 00:34:32;;;;;;;3.08;1.98;;;;;;;;;;5031361;28;20041;-46
2021/10/04 00:36:59;;;;;;;2.38;1.80;;;;;;;;;;5031837;28;20041;-47
2021/10/04 00:39:26;;;;;;;3.17;2.10;;;;;;;;;;5031867;28;20480;-48
2021/10/04 00:41:53;;;;;;;3.38;2.25;;;;;;;;;;5031606;28;20037;-48
2021/10/04 00:44:20;;;;;;;2.97;2.00;;;;;;;;;;5031326;28;20049;-47
2021/10/04 00:46:46;;;;;;;3.95;1.98;;;;;;;;;;5031747;28;20041;-47
2021/10/04 00:49:13;;;;;;;3.70;2.15;;;;;;;;;;5031632;28;20498;-50
2021/10/04 00:51:40;;;;;;;3.17;1.98;;;;;;;;;;5031144;28;20052;-46
2021/10/04 00:54:07;;;;;;;3.13;2.08;;;;;;;;;;5031067;28;20479;-44
2021/10/04 00:56:33;;;;;;;2.63;1.70;;;;;;;;;;5032683;28;20048;-46
2021/10/04 00:59:00;;;;;;;3.03;1.73;;;;;;;;;;5034763;28;20061;-47
2021/10/04 01:01:28;;;;;;;3.28;2.17;;;;;;;;;;5035029;28;20038;-49
2021/10/04 01:03:56;;;;;;;3.22;2.10;;;;;;;;;;5034712;28;20041;-46
2021/10/04 01:06:23;;;;;;;3.10;2.00;;;;;;;;;;5034767;28;20124;-47
2021/10/04 01:08:50;;;;;;;3.58;2.30;;;;;;;;;;5049940;28;20053;-48
2021/10/04 01:11:17;;;;;;;3.47;2.13;;;;;;;;;;5034555;28;20049;-44
2021/10/04 01:13:45;;;;;;;3.55;2.30;;;;;;;;;;5033270;28;20072;-44
2021/10/04 01:16:12;;;;;;;3.65;2.42;;;;;;;;;;5034523;28;20490;-44
2021/10/04 01:18:39;;;;;;;2.85;2.10;;;;;;;;;;5034761;28;20510;-46
2021/10/04 01:21:06;;;;;;;3.40;2.20;;;;;;;;;;5034618;28;20442;-43
2021/10/04 01:23:33;;;;;;;2.97;2.00;;;;;;;;;;5034128;28;20041;-43
2021/10/04 01:26:00;;;;;;;3.45;2.28;;;;;;;;;;5034464;28;20069;-44
2021/10/04 01:28:27;;;;;;;3.92;2.20;;;;;;;;;;5034565;28;20128;-45
2021/10/04 01:30:54;;;;;;;2.72;1.90;;;;;;;;;;5034169;28;20501;-43
2021/10/04 01:33:22;;;;;;;2.80;2.05;;;;;;;;;;5034170;28;20053;-44
2021/10/04 01:35:48;;;;;;;3.17;2.08;;;;;;;;;;5034279;28;20041;-43
2021/10/04 01:38:15;;;;;;;3.35;2.08;;;;;;;;;;5034032;28;20077;-43
2021/10/04 01:40:45;;;;;;;2.65;1.80;;;;;;;;;;5034352;28;20478;-44
2021/10/04 01:43:13;;;;;;;3.05;2.10;;;;;;;;;;5034194;28;20136;-43
2021/10/04 01:45:39;;;;;;;3.25;2.10;;;;;;;;;;5034040;28;20068;-43
2021/10/04 01:48:06;;;;;;;3.15;2.10;;;;;;;;;;5033938;28;20048;-43
2021/10/04 01:50:34;;;;;;;2.92;1.80;;;;;;;;;;5033898;28;20132;-43
2021/10/04 01:53:01;;;;;;;3.00;1.88;;;;;;;;;;5033965;28;20042;-43
2021/10/04 01:55:28;;;;;;;3.53;2.20;;;;;;;;;;5033679;28;20046;-44
2021/10/04 01:57:55;;;;;;;3.15;2.00;;;;;;;;;;5034201;28;20045;-47
2021/10/04 02:00:22;;;;;;;3.10;1.98;;;;;;;;;;5034323;28;20069;-43
2021/10/04 02:02:50;;;;;;;2.63;1.73;;;;;;;;;;5034037;28;20120;-45
2021/10/04 02:05:20;;;;;;;2.40;1.50;;;;;;;;;;5034187;28;20414;-43
2021/10/04 02:07:50;;;;;;;2.72;1.45;;;;;;;;;;5032389;28;20059;-46
2021/10/04 02:10:19;;;;;;;2.63;1.30;;;;;;;;;;5034014;28;20431;-45
2021/10/04 02:12:46;;;;;;;2.00;1.30;;;;;;;;;;5033697;28;20046;-46
2021/10/04 02:15:14;;;;;;;5.60;1.90;;;;;;;;;;5033457;28;20495;-46
2021/10/04 02:17:41;;;;;;;2.47;1.38;;;;;;;;;;5033393;28;20042;-44
2021/10/04 02:20:10;;;;;;;2.53;1.30;;;;;;;;;;5033595;28;20043;-47
2021/10/04 02:22:37;;;;;;;2.85;1.42;;;;;;;;;;5033531;28;20041;-48
2021/10/04 02:25:04;;;;;;;3.92;1.40;;;;;;;;;;5033298;28;20567;-50
2021/10/04 02:27:31;;;;;;;1.90;1.23;;;;;;;;;;5033270;28;20120;-47
2021/10/04 02:29:58;;;;;;;2.17;1.40;;;;;;;;;;5033066;28;20050;-46
2021/10/04 02:32:24;;;;;;;2.58;1.40;;;;;;;;;;5033491;28;20049;-46
2021/10/04 02:34:51;;;;;;;2.03;1.30;;;;;;;;;;5033334;28;20051;-46
2021/10/04 02:37:18;;;;;;;2.38;1.50;;;;;;;;;;5032140;28;20049;-47
2021/10/04 02:39:45;;;;;;;2.65;1.50;;;;;;;;;;5032635;28;20049;-46
2021/10/04 02:42:11;;;;;;;2.35;1.40;;;;;;;;;;5033135;28;20052;-46
2021/10/04 02:44:38;;;;;;;2.53;1.40;;;;;;;;;;5032687;28;20037;-47
2021/10/04 02:47:05;;;;;;;2.40;1.52;;;;;;;;;;5033020;28;20045;-47
2021/10/04 02:49:32;;;;;;;2.45;1.40;;;;;;;;;;5032878;28;20041;-47
2021/10/04 02:51:58;;;;;;;2.05;1.40;;;;;;;;;;5032954;28;20128;-47
2021/10/04 02:54:25;;;;;;;2.20;1.40;;;;;;;;;;5032767;28;20136;-46
2021/10/04 02:56:52;;;;;;;1.88;1.27;;;;;;;;;;5032780;28;20041;-46
2021/10/04 02:59:18;;;;;;;2.88;1.33;;;;;;;;;;5032743;28;20458;-47
2021/10/04 03:01:45;;;;;;;2.50;1.40;;;;;;;;;;5032741;28;20038;-47
2021/10/04 03:04:12;;;;;;;3.15;1.60;;;;;;;;;;5032538;28;20056;-49
2021/10/04 03:06:39;;;;;;;2.20;1.20;;;;;;;;;;5032625;28;20048;-48
2021/10/04 03:09:06;;;;;;;2.08;1.10;;;;;;;;;;5032458;28;20128;-50
2021/10/04 03:11:32;;;;;;;2.92;1.30;;;;;;;;;;5033165;28;20345;-47
2021/10/04 03:13:59;;;;;;;1.85;1.17;;;;;;;;;;5032309;28;20478;-47
2021/10/04 03:16:26;;;;;;;3.22;1.20;;;;;;;;;;5032746;28;20475;-49
2021/10/04 03:18:53;;;;;;;1.67;1.10;;;;;;;;;;5031939;28;20068;-48
2021/10/04 03:21:20;;;;;;;1.95;1.10;;;;;;;;;;5032380;28;20557;-50
2021/10/04 03:23:46;;;;;;;3.08;1.10;;;;;;;;;;5030958;28;20414;-47
2021/10/04 03:26:13;;;;;;;1.35;0.93;;;;;;;;;;5032040;28;20133;-45
2021/10/04 03:28:40;;;;;;;1.70;1.10;;;;;;;;;;5032407;28;20055;-50
2021/10/04 03:31:07;;;;;;;2.17;1.20;;;;;;;;;;5032233;28;20073;-47
2021/10/04 03:33:34;;;;;;;1.98;1.25;;;;;;;;;;5032169;28;20064;-46
2021/10/04 03:36:00;;;;;;;1.77;1.27;;;;;;;;;;5031411;28;20045;-45
2021/10/04 03:38:27;;;;;;;4.90;1.40;;;;;;;;;;5031885;28;20046;-49
2021/10/04 03:40:54;;;;;;;2.35;1.33;;;;;;;;;;5031973;28;20041;-47
2021/10/04 03:43:21;;;;;;;1.70;1.10;;;;;;;;;;5032100;28;20408;-44
2021/10/04 03:45:47;;;;;;;2.00;1.30;;;;;;;;;;5030839;28;20581;-47
2021/10/04 03:48:14;;;;;;;2.10;1.15;;;;;;;;;;5031253;28;20044;-45
2021/10/04 03:50:41;;;;;;;1.70;1.08;;;;;;;;;;5030713;28;20120;-50
2021/10/04 03:53:08;;;;;;;1.73;1.00;;;;;;;;;;5031622;28;20331;-48
2021/10/04 03:55:35;;;;;;;2.45;1.20;;;;;;;;;;5031824;28;20410;-47
2021/10/04 03:58:01;;;;;;;2.88;1.45;;;;;;;;;;5031558;28;20080;-47
2021/10/04 04:00:28;;;;;;;2.75;1.25;;;;;;;;;;5031600;28;20047;-46
2021/10/04 04:02:55;;;;;;;2.50;1.30;;;;;;;;;;5031654;28;20487;-46
2021/10/04 04:05:24;;;;;;;2.25;1.23;;;;;;;;;;5031701;28;20407;-47
2021/10/04 04:07:51;;;;;;;4.93;1.23;;;;;;;;;;5031644;28;20128;-47
2021/10/04 04:10:18;;;;;;;2.95;1.30;;;;;;;;;;5032006;28;20410;-49
2021/10/04 04:12:45;;;;;;;2.03;1.10;;;;;;;;;;5031461;28;20597;-51
2021/10/04 04:15:13;;;;;;;1.95;1.20;;;;;;;;;;5031451;28;20526;-51
2021/10/04 04:17:40;;;;;;;3.45;1.30;;;;;;;;;;5031806;28;20053;-46
2021/10/04 04:20:07;;;;;;;3.00;1.50;;;;;;;;;;5031541;28;20042;-49
2021/10/04 04:22:34;;;;;;;6.22;1.23;;;;;;;;;;5031473;28;20476;-46
2021/10/04 04:25:01;;;;;;;1.65;1.13;;;;;;;;;;5031127;28;20072;-49
2021/10/04 04:27:33;;;;;;;2.50;1.38;;;;;;;;;;5031871;28;20171;-49
2021/10/04 04:30:01;;;;;;;2.53;1.40;;;;;;;;;;5038003;28;20050;-47
2021/10/04 04:32:28;;;;;;;2.53;1.60;;;;;;;;;;5035429;28;20075;-47
2021/10/04 04:34:54;;;;;;;2.90;1.55;;;;;;;;;;5035334;28;20080;-43
2021/10/04 04:37:21;;;;;;;2.88;1.42;;;;;;;;;;5035151;28;20052;-43
2021/10/04 04:39:48;;;;;;;2.75;1.35;;;;;;;;;;5035331;28;20153;-45
2021/10/04 04:42:15;;;;;;;3.33;1.35;;;;;;;;;;5034007;28;20041;-45
2021/10/04 04:44:41;;;;;;;3.55;1.30;;;;;;;;;;5034906;28;20037;-46
2021/10/04 04:47:08;;;;;;;3.20;1.67;;;;;;;;;;5035857;28;20048;-49
2021/10/04 04:49:35;;;;;;;3.20;1.67;;;;;;;;;;5035150;28;20053;-45
2021/10/04 04:52:02;;;;;;;3.80;1.38;;;;;;;;;;5035067;28;20052;-46
2021/10/04 04:54:29;;;;;;;3.90;1.42;;;;;;;;;;5034969;28;20413;-45
2021/10/04 04:56:55;;;;;;;2.72;1.40;;;;;;;;;;5035171;28;20046;-46
2021/10/04 04:59:22;;;;;;;3.47;1.60;;;;;;;;;;5034782;28;20403;-45
2021/10/04 05:01:49;;;;;;;4.22;1.40;;;;;;;;;;5035025;28;20041;-46
2021/10/04 05:04:16;;;;;;;2.30;1.30;;;;;;;;;;5034629;28;20042;-47
2021/10/04 05:06:43;;;;;;;2.90;1.58;;;;;;;;;;5034959;28;20038;-48
2021/10/04 05:09:10;;;;;;;3.25;1.80;;;;;;;;;;5034144;28;20076;-45
2021/10/04 05:11:37;;;;;;;3.92;1.85;;;;;;;;;;5034541;28;20049;-44
2021/10/04 05:14:03;;;;;;;2.50;1.60;;;;;;;;;;5034440;28;20566;-48
2021/10/04 05:16:30;;;;;;;4.03;1.60;;;;;;;;;;5034379;28;20140;-46
2021/10/04 05:18:57;;;;;;;4.80;1.27;;;;;;;;;;5033327;28;20501;-48
2021/10/04 05:21:24;;;;;;;3.55;1.33;;;;;;;;;;5033293;28;20103;-47
2021/10/04 05:23:51;;;;;;;2.65;1.42;;;;;;;;;;5034587;28;20402;-47
2021/10/04 05:26:17;;;;;;;4.70;1.42;;;;;;;;;;5034327;28;20042;-47
2021/10/04 05:28:44;;;;;;;5.13;1.67;;;;;;;;;;5034340;28;20045;-46
2021/10/04 05:31:11;;;;;;;6.72;1.98;;;;;;;;;;5033149;28;20052;-44
2021/10/04 05:33:38;;;;;;;4.35;1.67;;;;;;;;;;5033907;28;20057;-48
2021/10/04 05:36:06;;;;;;;4.55;1.70;;;;;;;;;;5035201;28;20041;-48
2021/10/04 05:38:33;;;;;;;3.63;1.77;;;;;;;;;;5032969;28;20410;-47
2021/10/04 05:40:59;;;;;;;7.00;1.70;;;;;;;;;;5033993;28;20047;-47
2021/10/04 05:43:26;;;;;;;2.90;1.45;;;;;;;;;;5034019;28;20495;-44
2021/10/04 05:45:53;;;;;;;2.53;1.40;;;;;;;;;;5033939;28;20047;-44
2021/10/04 05:48:20;;;;;;;3.08;1.73;;;;;;;;;;5033854;28;20104;-45
2021/10/04 05:50:49;;;;;;;2.70;1.30;;;;;;;;;;5033964;28;20137;-43
2021/10/04 05:53:16;;;;;;;3.33;1.35;;;;;;;;;;5033674;28;20041;-43
2021/10/04 05:55:44;;;;;;;2.63;1.40;;;;;;;;;;5032531;28;20441;-46
2021/10/04 05:58:11;;;;;;;3.40;1.67;;;;;;;;;;5033791;28;20057;-47
2021/10/04 06:00:38;;;;;;;3.53;1.70;;;;;;;;;;5033497;28;20038;-43
2021/10/04 06:03:05;;;;;;;3.42;1.95;;;;;;;;;;5032484;28;20499;-45
2021/10/04 06:05:32;;;;;;;3.70;1.60;;;;;;;;;;5034054;28;20038;-45
2021/10/04 06:07:58;;;;;;;5.47;2.00;;;;;;;;;;5033633;28;20037;-49
2021/10/04 06:10:25;;;;;;;4.90;1.83;;;;;;;;;;5032341;28;20064;-47
2021/10/04 06:12:52;;;;;;;2.90;1.75;;;;;;;;;;5033656;28;20124;-48
2021/10/04 06:15:19;;;;;;;3.20;1.60;;;;;;;;;;5033273;28;20454;-48
2021/10/04 06:17:46;;;;;;;3.80;1.85;;;;;;;;;;5033405;28;20052;-46
2021/10/04 06:20:13;;;;;;;3.60;1.77;;;;;;;;;;5033523;28;20516;-51
2021/10/04 06:22:40;;;;;;;4.95;1.60;;;;;;;;;;5033338;28;20045;-48
2021/10/04 06:25:08;;;;;;;3.83;1.73;;;;;;;;;;5033091;28;20531;-47
2021/10/04 06:27:35;;;;;;;3.50;1.60;;;;;;;;;;5033422;28;20562;-49
2021/10/04 06:30:02;;;;;;;4.40;1.90;;;;;;;;;;5033312;28;20045;-48
2021/10/04 06:32:29;;;;;;;4.32;1.80;;;;;;;;;;5033813;28;20088;-49
2021/10/04 06:34:55;;;;;;;5.20;1.65;;;;;;;;;;5033347;28;20052;-49
2021/10/04 06:37:22;;;;;;;2.80;1.70;;;;;;;;;;5033312;28;20084;-48
2021/10/04 06:39:49;;;;;;;2.90;1.65;;;;;;;;;;5033223;28;20042;-48
2021/10/04 06:42:16;;;;;;;2.78;1.60;;;;;;;;;;5031953;28;20404;-46
2021/10/04 06:44:43;;;;;;;2.30;1.50;;;;;;;;;;5033436;28;20048;-48
2021/10/04 06:47:10;;;;;;;2.45;1.50;;;;;;;;;;5044553;28;20049;-45
2021/10/04 06:49:36;;;;;;;3.03;1.50;;;;;;;;;;5050265;28;20045;-45
2021/10/04 06:52:04;;;;;;;5.55;1.73;;;;;;;;;;5052551;28;20064;-49
2021/10/04 06:54:31;;;;;;;3.60;1.90;;;;;;;;;;5045772;28;20055;-46
2021/10/04 06:56:57;;;;;;;3.45;1.90;;;;;;;;;;5032820;28;20056;-48
2021/10/04 06:59:24;;;;;;;3.53;1.70;;;;;;;;;;5032627;28;20057;-48
2021/10/04 07:01:51;;;;;;;3.70;1.80;;;;;;;;;;5032738;28;20045;-46
2021/10/04 07:04:18;;;;;;;2.33;1.60;;;;;;;;;;5032339;28;20041;-47
2021/10/04 07:06:45;;;;;;;3.72;1.60;;;;;;;;;;5032817;28;20041;-49
2021/10/04 07:09:11;;;;;;;2.45;1.42;;;;;;;;;;5033171;28;20049;-47
2021/10/04 07:11:38;;;;;;;3.10;1.67;;;;;;;;;;5032282;28;20572;-47
2021/10/04 07:14:05;;;;;;;2.95;1.70;;;;;;;;;;5032175;28;20052;-47
2021/10/04 07:16:32;;;;;;;4.10;1.80;;;;;;;;;;5032318;28;20158;-46
2021/10/04 07:19:00;;;;;;;3.40;2.03;;;;;;;;;;5032236;28;20045;-49
2021/10/04 07:21:26;;;;;;;3.10;1.77;;;;;;;;;;5032365;28;20041;-48
2021/10/04 07:23:53;;;;;;;4.05;1.80;;;;;;;;;;5031882;28;20479;-46
2021/10/04 07:26:22;;;;;;;3.17;1.83;;;;;;;;;;5032203;28;20447;-48
2021/10/04 07:28:49;;;;;;;4.50;1.92;;;;;;;;;;5031785;28;20045;-48
2021/10/04 07:31:17;;;;;;;4.88;1.80;;;;;;;;;;5032151;28;20042;-46
2021/10/04 07:33:44;;;;;;;4.97;1.90;;;;;;;;;;5031714;28;20049;-46
2021/10/04 07:36:11;;;;;;;1.73;1.40;;;;;;;;;;5032202;28;20052;-48
2021/10/04 07:38:38;;;;;;;3.15;1.67;;;;;;;;;;5031772;28;20041;-46
2021/10/04 07:41:05;;;;;;;3.47;2.08;;;;;;;;;;5031942;28;20045;-44
2021/10/04 07:43:33;;;;;;;4.32;1.98;;;;;;;;;;5031815;28;20132;-51
2021/10/04 07:46:02;;;;;;;3.38;1.80;;;;;;;;;;5031933;28;20037;-45
2021/10/04 07:48:30;;;;;;;3.95;1.77;;;;;;;;;;5032010;28;20042;-45
2021/10/04 07:50:57;;;;;;;4.38;1.75;;;;;;;;;;5031969;28;20049;-45
2021/10/04 07:53:24;;;;;;;3.08;1.80;;;;;;;;;;5031979;28;20060;-46
2021/10/04 07:55:50;;;;;;;2.55;1.80;;;;;;;;;;5045698;28;20140;-45
2021/10/04 07:58:17;;;;;;;4.63;2.05;;;;;;;;;;5032225;28;20124;-44
2021/10/04 08:00:44;;;;;;;4.55;1.92;;;;;;;;;;5031588;28;20037;-44
2021/10/04 08:03:11;;;;;;;3.42;1.90;;;;;;;;;;5031638;28;20037;-50
2021/10/04 08:05:38;;;;;;;3.28;1.60;;;;;;;;;;5031635;28;20041;-44
2021/10/04 08:08:05;;;;;;;6.10;1.60;;;;;;;;;;5040029;28;20068;-44
2021/10/04 08:10:31;;;;;;;1.98;1.42;;;;;;;;;;5051870;28;20127;-45
2021/10/04 08:12:59;;;;;;;2.67;1.77;;;;;;;;;;5052027;28;20059;-46
2021/10/04 08:15:26;;;;;;;2.60;1.50;;;;;;;;;;5046010;28;20465;-44
2021/10/04 08:17:53;;;;;;;2.67;1.70;;;;;;;;;;5032444;28;20478;-48
2021/10/04 08:20:22;;;;;;;3.10;1.90;;;;;;;;;;5032229;28;20038;-46
2021/10/04 08:22:49;;;;;;;2.67;1.52;;;;;;;;;;5031510;28;20052;-44
2021/10/04 08:25:16;;;;;;;4.05;2.00;;;;;;;;;;5031783;28;20124;-46
2021/10/04 08:27:43;;;;;;;4.85;1.98;;;;;;;;;;5031905;28;20042;-46
2021/10/04 08:30:12;;;;;;;2.50;1.77;;;;;;;;;;5031472;28;20566;-45
2021/10/04 08:32:39;;;;;;;2.55;1.65;;;;;;;;;;5031555;28;20085;-46
2021/10/04 08:35:06;;;;;;;3.60;1.88;;;;;;;;;;5031412;28;20487;-45
2021/10/04 08:37:33;;;;;;;3.08;1.80;;;;;;;;;;5031340;28;20041;-45
2021/10/04 08:40:02;;;;;;;2.40;1.75;;;;;;;;;;5031679;28;20041;-49
2021/10/04 08:42:30;;;;;;;3.70;1.85;;;;;;;;;;5031521;28;20052;-44
2021/10/04 08:44:58;;;;;;;2.65;1.90;;;;;;;;;;5031264;28;20124;-43
2021/10/04 08:47:24;;;;;;;4.82;2.03;;;;;;;;;;5030044;28;20533;-44
2021/10/04 08:49:51;;;;;;;3.50;1.73;;;;;;;;;;5031417;28;20132;-44
2021/10/04 08:52:18;;;;;;;4.03;1.50;;;;;;;;;;5030109;28;20140;-44
2021/10/04 08:54:45;;;;;;;2.35;1.52;;;;;;;;;;5030980;28;20046;-47
2021/10/04 08:57:12;;;;;;;4.53;1.85;;;;;;;;;;5031342;28;20055;-46
2021/10/04 08:59:40;;;;;;;3.55;1.45;;;;;;;;;;5031649;28;20132;-48
2021/10/04 09:02:18;;;;;;;2.47;1.50;;;;;;;;;;5031277;28;20042;-45
2021/10/04 09:04:45;;;;;;;5.07;1.67;;;;;;;;;;5031393;28;20450;-46
2021/10/04 09:07:12;;;;;;;4.18;1.77;;;;;;;;;;5031274;28;20387;-45
2021/10/04 09:09:51;;;;;;;1.92;1.30;;;;;;;;;;5031212;28;20076;-43
2021/10/04 09:12:21;;;;;;;3.38;1.58;;;;;;;;;;5031600;28;20048;-44
2021/10/04 09:14:48;;;;;;;3.47;1.70;;;;;;;;;;5031067;28;20578;-44
2021/10/04 09:17:15;;;;;;;2.60;1.50;;;;;;;;;;5033051;28;20041;-45
2021/10/04 09:19:43;;;;;;;4.10;1.60;;;;;;;;;;5034664;28;20045;-47
2021/10/04 09:22:12;;;;;;;2.83;1.40;;;;;;;;;;5034899;28;20125;-46
2021/10/04 09:24:44;;;;;;;2.15;1.60;;;;;;;;;;5033225;28;20140;-47
2021/10/04 09:27:22;;;;;;;2.63;1.58;;;;;;;;;;5049848;28;20483;-45
2021/10/04 09:29:50;;;;;;;2.00;1.50;;;;;;;;;;5048678;28;20036;-42
2021/10/04 09:32:33;;;;;;;2.88;1.70;;;;;;;;;;5054804;28;20041;-46
2021/10/04 09:35:29;;;;;;;2.78;1.70;;;;;;;;;;5052978;28;20047;-47
2021/10/04 09:37:59;;;;;;;2.92;1.98;;;;;;;;;;5035901;28;20069;-49
2021/10/04 09:40:36;;;;;;;2.00;1.58;;;;;;;;;;5054303;28;20065;-46
2021/10/04 09:43:20;;;;;;;5.00;1.95;;;;;;;;;;5054539;28;20039;-46
2021/10/04 09:45:57;;;;;;;3.20;1.95;;;;;;;;;;5047409;28;20049;-43
2021/10/04 09:48:24;;;;;;;3.95;1.60;;;;;;;;;;5034442;28;20384;-45
2021/10/04 09:50:51;;;;;;;2.97;1.90;;;;;;;;;;5021354;28;20045;-45
2021/10/04 09:53:17;;;;;;;3.50;1.80;;;;;;;;;;5053220;28;20520;-49
2021/10/04 09:55:46;;;;;;;2.67;1.58;;;;;;;;;;5048935;28;20179;-46
2021/10/04 09:58:17;;;;;;;2.47;1.73;;;;;;;;;;5057752;28;20387;-43
2021/10/04 10:00:58;;;;;;;2.92;1.60;;;;;;;;;;5051976;28;20040;-42
2021/10/04 10:03:27;;;;;;;4.18;1.67;;;;;;;;;;5054464;28;20045;-42
2021/10/04 10:05:57;;;;;;;3.97;2.10;;;;;;;;;;5054523;28;20759;-44
2021/10/04 10:08:25;;;;;;;3.63;1.70;;;;;;;;;;5048261;28;20034;-43
2021/10/04 10:10:54;;;;;;;2.08;1.50;;;;;;;;;;5051383;28;20144;-42
2021/10/04 10:13:23;;;;;;;2.67;1.45;;;;;;;;;;5054133;28;20068;-45
2021/10/04 10:16:09;;;;;;;2.47;1.52;;;;;;;;;;5052258;28;20057;-45
2021/10/04 10:18:55;;;;;;;2.45;1.65;;;;;;;;;;5041584;28;20099;-46
2021/10/04 10:21:23;;;;;;;4.97;1.60;;;;;;;;;;5033081;28;20045;-45
2021/10/04 10:23:52;;;;;;;2.92;1.63;;;;;;;;;;5039005;28;20041;-45
2021/10/04 10:26:39;;;;;;;2.42;1.70;;;;;;;;;;5050785;28;20041;-46
2021/10/04 10:29:09;;;;;;;3.63;1.90;;;;;;;;;;5052616;28;20041;-45
2021/10/04 10:31:48;;;;;;;2.85;1.55;;;;;;;;;;5049577;28;20481;-47
2021/10/04 10:34:31;;;;;;;3.38;1.60;;;;;;;;;;5043090;28;20099;-45
2021/10/04 10:37:06;;;;;;;2.22;1.70;;;;;;;;;;5056867;28;20045;-45
2021/10/04 10:39:42;;;;;;;2.83;1.90;;;;;;;;;;5050447;28;20049;-48
2021/10/04 10:42:20;;;;;;;2.25;1.70;;;;;;;;;;5050559;28;20126;-46
2021/10/04 10:44:54;;;;;;;2.30;1.50;;;;;;;;;;5043774;28;20041;-49
2021/10/04 10:47:39;;;;;;;2.28;1.63;;;;;;;;;;5052899;28;20041;-45
2021/10/04 10:50:12;;;;;;;3.33;1.52;;;;;;;;;;5036969;28;20502;-45
2021/10/04 10:52:40;;;;;;;2.60;1.80;;;;;;;;;;5050209;28;20083;-43
2021/10/04 10:55:22;;;;;;;3.72;1.67;;;;;;;;;;5049722;28;20068;-45
2021/10/04 10:57:48;;;;;;;2.53;1.65;;;;;;;;;;5049109;28;20068;-47
2021/10/04 11:00:22;;;;;;;2.13;1.60;;;;;;;;;;5047264;28;20414;-42
2021/10/04 11:02:55;;;;;;;3.13;1.52;;;;;;;;;;5048928;28;20049;-42
2021/10/04 11:05:37;;;;;;;2.08;1.55;;;;;;;;;;5046252;28;20078;-42
2021/10/04 11:08:10;;;;;;;2.72;1.65;;;;;;;;;;5049261;28;20124;-44
2021/10/04 11:11:00;;;;;;;2.47;1.75;;;;;;;;;;5049693;28;20099;-42
2021/10/04 11:13:30;;;;;;;2.78;1.98;;;;;;;;;;5046828;28;20471;-45
2021/10/04 11:16:00;;;;;;;3.05;1.60;;;;;;;;;;5049556;28;20421;-42
2021/10/04 11:18:37;;;;;;;4.35;1.48;;;;;;;;;;5053749;28;20041;-42
2021/10/04 11:21:06;;;;;;;4.70;1.88;;;;;;;;;;5049687;28;20045;-44
2021/10/04 11:23:33;;;;;;;2.10;1.60;;;;;;;;;;5049939;28;20437;-44
2021/10/04 11:25:59;;;;;;;2.72;1.67;;;;;;;;;;5049423;28;20072;-42
2021/10/04 11:28:29;;;;;;;2.65;1.48;;;;;;;;;;5049456;28;20043;-44
2021/10/04 11:31:01;;;;;;;2.03;1.23;;;;;;;;;;5050042;28;20048;-43
2021/10/04 11:33:32;;;;;;;1.80;1.27;;;;;;;;;;5049153;28;20060;-45
2021/10/04 11:36:04;;;;;;;1.73;1.30;;;;;;;;;;5048712;28;20040;-45
2021/10/04 11:38:35;;;;;;;3.58;1.40;;;;;;;;;;5046480;28;20037;-44
2021/10/04 11:41:03;;;;;;;1.25;1.05;;;;;;;;;;5050342;28;20127;-44
2021/10/04 11:43:30;;;;;;;2.97;1.50;;;;;;;;;;5047711;28;20033;-44
2021/10/04 11:45:57;;;;;;;2.78;1.42;;;;;;;;;;5052118;28;20037;-48
2021/10/04 11:48:39;;;;;;;1.38;1.20;;;;;;;;;;5040992;28;20455;-45
2021/10/04 11:51:08;;;;;;;2.63;1.05;;;;;;;;;;5050559;28;20116;-43
2021/10/04 11:53:37;;;;;;;2.47;1.20;;;;;;;;;;5051019;28;20040;-41
2021/10/04 11:56:08;;;;;;;3.22;1.50;;;;;;;;;;5047824;28;20603;-43
2021/10/04 11:58:45;;;;;;;3.47;1.45;;;;;;;;;;5052040;28;20059;-44
2021/10/04 12:01:12;;;;;;;4.20;1.60;;;;;;;;;;5042465;28;20037;-44
2021/10/04 12:03:39;;;;;;;2.42;1.98;;;;;;;;;;5050026;28;20072;-43
2021/10/04 12:06:09;;;;;;;2.13;1.40;;;;;;;;;;5045405;28;20068;-43
2021/10/04 12:08:37;;;;;;;1.83;1.23;;;;;;;;;;5045856;28;20037;-44
2021/10/04 12:11:07;;;;;;;1.83;1.30;;;;;;;;;;5043623;28;20076;-42
2021/10/04 12:13:34;;;;;;;2.22;1.33;;;;;;;;;;5048364;28;20084;-42
2021/10/04 12:16:06;;;;;;;3.42;1.90;;;;;;;;;;5050349;28;20049;-46
2021/10/04 12:18:39;;;;;;;4.07;1.85;;;;;;;;;;5049247;28;20140;-48
2021/10/04 12:21:14;;;;;;;2.67;1.40;;;;;;;;;;5017576;28;20079;-46
2021/10/04 12:23:41;;;;;;;1.58;1.10;;;;;;;;;;5049510;28;20053;-46
2021/10/04 12:26:09;;;;;;;2.42;1.20;;;;;;;;;;5045003;28;20037;-42
2021/10/04 12:28:43;;;;;;;1.92;1.27;;;;;;;;;;5049383;28;20066;-44
2021/10/04 12:31:10;;;;;;;3.25;1.38;;;;;;;;;;5044243;28;20131;-41
2021/10/04 12:33:45;;;;;;;7.32;2.28;;;;;;;;;;5051257;28;20076;-41
2021/10/04 12:36:12;;;;;;;3.67;1.52;;;;;;;;;;5041819;28;20175;-45
2021/10/04 12:38:49;;;;;;;2.00;1.40;;;;;;;;;;5048018;28;20041;-41
2021/10/04 12:41:15;;;;;;;1.80;1.40;;;;;;;;;;5051308;28;20528;-42
2021/10/04 12:43:43;;;;;;;2.03;1.30;;;;;;;;;;5051201;28;20055;-43
2021/10/04 12:46:15;;;;;;;2.15;1.30;;;;;;;;;;5043364;28;20116;-42
2021/10/04 12:48:43;;;;;;;2.70;1.35;;;;;;;;;;5049467;28;20041;-42
2021/10/04 12:51:12;;;;;;;2.60;1.30;;;;;;;;;;5049163;28;20049;-43
2021/10/04 12:53:46;;;;;;;2.15;1.27;;;;;;;;;;5051355;28;20138;-44
2021/10/04 12:56:13;;;;;;;2.28;1.10;;;;;;;;;;5037436;28;20055;-46
2021/10/04 12:58:40;;;;;;;1.25;1.08;;;;;;;;;;5049600;28;20045;-44
2021/10/04 13:01:18;;;;;;;2.67;1.30;;;;;;;;;;5044553;28;20051;-47
2021/10/04 13:04:11;;;;;;;3.38;1.40;;;;;;;;;;5065655;28;20068;-44
2021/10/04 13:06:41;;;;;;;4.03;1.60;;;;;;;;;;5047531;28;20056;-45
2021/10/04 13:09:09;;;;;;;1.65;1.17;;;;;;;;;;5035258;28;20132;-42
2021/10/04 13:11:46;;;;;;;3.28;1.35;;;;;;;;;;5035572;28;20051;-42
2021/10/04 13:14:13;;;;;;;4.20;1.33;;;;;;;;;;5053815;28;20045;-40
2021/10/04 13:16:40;;;;;;;3.40;1.20;;;;;;;;;;5057487;28;20402;-41
2021/10/04 13:19:07;;;;;;;3.35;1.25;;;;;;;;;;5053444;28;20494;-43
2021/10/04 13:21:38;;;;;;;2.28;0.95;;;;;;;;;;5054083;28;20052;-46
2021/10/04 13:24:05;;;;;;;2.90;1.00;;;;;;;;;;5056128;28;20457;-42
2021/10/04 13:26:32;;;;;;;2.15;1.35;;;;;;;;;;5042943;28;20052;-44
2021/10/04 13:28:59;;;;;;;2.55;1.20;;;;;;;;;;5049861;28;20106;-44
2021/10/04 13:31:26;;;;;;;2.08;1.23;;;;;;;;;;5052381;28;20124;-46
2021/10/04 13:33:55;;;;;;;2.10;1.08;;;;;;;;;;5053971;28;20171;-44
2021/10/04 13:36:22;;;;;;;3.28;1.50;;;;;;;;;;5054311;28;20044;-45
2021/10/04 13:38:49;;;;;;;5.55;1.40;;;;;;;;;;5045613;28;20090;-44
2021/10/04 13:41:16;;;;;;;4.38;1.67;;;;;;;;;;5042629;28;20083;-46
2021/10/04 13:43:43;;;;;;;2.08;1.35;;;;;;;;;;5053294;28;20045;-43
2021/10/04 13:46:10;;;;;;;3.35;1.30;;;;;;;;;;5049917;28;20067;-41
2021/10/04 13:48:37;;;;;;;3.20;1.20;;;;;;;;;;5053485;28;20047;-42
2021/10/04 13:51:04;;;;;;;3.00;1.42;;;;;;;;;;5054073;28;20045;-44
2021/10/04 13:53:31;;;;;;;1.77;1.20;;;;;;;;;;5052879;28;20405;-43
2021/10/04 13:56:03;;;;;;;1.83;1.40;;;;;;;;;;5049647;28;20049;-42
2021/10/04 13:58:30;;;;;;;2.03;1.30;;;;;;;;;;5052430;28;20120;-41
2021/10/04 14:00:57;;;;;;;2.05;1.15;;;;;;;;;;5035344;28;20065;-44
2021/10/04 14:03:26;;;;;;;5.35;1.38;;;;;;;;;;5052425;28;20041;-43
2021/10/04 14:05:53;;;;;;;3.33;1.20;;;;;;;;;;5054118;28;20129;-43
2021/10/04 14:08:20;;;;;;;4.03;1.48;;;;;;;;;;5040220;28;20041;-42
2021/10/04 14:10:47;;;;;;;2.95;1.30;;;;;;;;;;5033344;28;20539;-43
2021/10/04 14:13:14;;;;;;;3.63;1.45;;;;;;;;;;5050837;28;20041;-42
2021/10/04 14:15:41;;;;;;;2.70;1.42;;;;;;;;;;5049318;28;20069;-41
2021/10/04 14:18:08;;;;;;;2.33;1.33;;;;;;;;;;5048234;28;20111;-41
2021/10/04 14:20:35;;;;;;;2.63;1.33;;;;;;;;;;5053726;28;20041;-43
2021/10/04 14:23:02;;;;;;;2.10;1.20;;;;;;;;;;5053774;28;20044;-45
2021/10/04 14:25:29;;;;;;;2.45;1.70;;;;;;;;;;5049431;28;20045;-42
2021/10/04 14:27:56;;;;;;;5.40;1.52;;;;;;;;;;5047431;28;20071;-45
2021/10/04 14:30:23;;;;;;;2.30;1.30;;;;;;;;;;5039250;28;20063;-42
2021/10/04 14:33:07;;;;;;;2.25;1.40;;;;;;;;;;5049034;28;20033;-43
2021/10/04 14:35:33;;;;;;;4.20;1.30;;;;;;;;;;5047412;28;20120;-42
2021/10/04 14:38:00;;;;;;;2.28;1.50;;;;;;;;;;5047932;28;20376;-43
2021/10/04 14:40:28;;;;;;;3.35;1.17;;;;;;;;;;5041000;28;20480;-44
2021/10/04 14:42:54;;;;;;;4.95;1.40;;;;;;;;;;5053597;28;20037;-44
2021/10/04 14:45:22;;;;;;;2.22;1.27;;;;;;;;;;5052744;28;20041;-43
2021/10/04 14:47:49;;;;;;;1.75;1.30;;;;;;;;;;5048222;28;20033;-44
2021/10/04 14:50:17;;;;;;;2.58;1.42;;;;;;;;;;5038677;28;20071;-44